Terminal Aerodrome Forecast
Issued by NWS Medford, OR

Home | Current Version | Previous Version | Text Only | Print | Product List | Glossary On
Versions: 1 2 3 4 5 6 7 8 9 10 11 12 13 14 15 16 17 18 19 20 21
000
FTUS46 KMFR 211700 RRA
TAFMFR
TAF
KMFR 211745Z 2118/2218 35003KT P6SM FEW006 BKN050 BKN070
     FM212000 26005KT P6SM SCT060 BKN200
     FM220300 VRB03KT P6SM SCT100 BKN200
     FM221200 16005KT P6SM SCT060 BKN090 BKN120=

USA.gov is the U.S. government's official web portal to all federal, state and local government web resources and services.